createdAt,value
2022-08-08T00:00:53.599Z,97.15
2022-08-08T00:00:54.227Z,96.25
2022-08-08T00:02:03.676Z,96.80
2022-08-08T00:02:43.359Z,96.85
2022-08-08T00:03:32.338Z,96.85
2022-08-08T00:04:28.107Z,96.85
2022-08-08T00:05:43.770Z,97.05
2022-08-08T00:06:34.220Z,96.95
2022-08-08T00:07:28.609Z,96.65
2022-08-08T00:08:27.415Z,96.85
2022-08-08T00:09:27.564Z,97.05
2022-08-08T00:10:28.867Z,96.85
2022-08-08T00:11:27.873Z,96.95
2022-08-08T00:12:29.863Z,96.75
2022-08-08T00:14:17.206Z,96.80
2022-08-08T00:14:48.311Z,96.69
2022-08-08T00:15:55.878Z,96.75
2022-08-08T00:16:28.322Z,96.75
2022-08-08T00:17:27.337Z,96.80
2022-08-08T00:18:28.301Z,96.59
2022-08-08T00:19:27.286Z,96.59
2022-08-08T00:20:27.271Z,97.00
2022-08-08T00:21:27.266Z,97.00
2022-08-08T00:22:28.900Z,97.09
2022-08-08T00:23:28.471Z,96.89
2022-08-08T00:24:29.898Z,97.09
2022-08-08T00:25:39.138Z,97.50
2022-08-08T00:26:29.866Z,97.20
2022-08-08T00:27:34.820Z,97.34
2022-08-08T00:28:34.888Z,97.24
2022-08-08T00:29:44.232Z,96.89
2022-08-08T00:30:28.163Z,97.34
2022-08-08T00:32:20.751Z,97.30
2022-08-08T00:32:35.038Z,97.24
2022-08-08T00:33:29.160Z,97.14
2022-08-08T00:34:28.118Z,96.74
2022-08-08T00:35:27.108Z,96.84
2022-08-08T00:36:27.107Z,96.84
2022-08-08T00:37:46.926Z,97.34
2022-08-08T00:38:32.423Z,96.94
2022-08-08T00:41:07.245Z,97.24
2022-08-08T00:41:08.052Z,97.39
2022-08-08T00:41:54.794Z,97.24
2022-08-08T00:42:33.262Z,97.34
2022-08-08T00:43:39.902Z,97.34
2022-08-08T00:44:28.013Z,97.14
2022-08-08T00:45:27.181Z,97.64
2022-08-08T00:46:26.998Z,97.44
2022-08-08T00:47:37.025Z,97.49
2022-08-08T00:48:30.034Z,97.49
2022-08-08T00:49:33.154Z,97.69
2022-08-08T00:50:27.954Z,98.10
2022-08-08T00:51:39.163Z,97.99
2022-08-08T00:52:39.004Z,98.10
2022-08-08T00:53:29.246Z,97.89
2022-08-08T00:54:28.963Z,97.99
2022-08-08T00:55:52.877Z,97.69
2022-08-08T00:56:30.066Z,97.79
2022-08-08T00:57:34.493Z,97.59
2022-08-08T00:58:30.721Z,97.89
2022-08-08T00:59:44.345Z,97.69
2022-08-08T01:00:27.868Z,97.69
2022-08-08T01:01:37.387Z,97.59
2022-08-08T01:03:16.171Z,97.99
2022-08-08T01:04:01.854Z,97.53
2022-08-08T01:04:29.604Z,98.14
2022-08-08T01:05:42.239Z,97.53
2022-08-08T01:06:27.960Z,97.64
2022-08-08T01:07:34.855Z,97.74
2022-08-08T01:08:28.674Z,97.64
2022-08-08T01:09:36.422Z,97.74
2022-08-08T01:10:27.738Z,97.74
2022-08-08T01:11:26.723Z,97.74
2022-08-08T01:12:29.754Z,98.09
2022-08-08T01:13:43.712Z,98.24
2022-08-08T01:14:53.729Z,98.54
2022-08-08T01:15:43.978Z,98.24
2022-08-08T01:16:28.095Z,98.24
2022-08-08T01:17:51.513Z,98.04
2022-08-08T01:18:52.457Z,98.04
2022-08-08T01:19:52.412Z,98.54
2022-08-08T01:20:27.624Z,98.54
2022-08-08T01:21:36.900Z,98.59
2022-08-08T01:22:34.847Z,98.29
2022-08-08T01:24:05.255Z,98.59
2022-08-08T01:24:27.640Z,98.39
2022-08-08T01:25:40.862Z,98.39
2022-08-08T01:26:28.468Z,98.59
2022-08-08T01:27:32.823Z,98.34
2022-08-08T01:28:28.092Z,98.39
2022-08-08T01:29:28.009Z,98.49
2022-08-08T01:30:27.511Z,98.09
2022-08-08T01:32:13.700Z,98.19
2022-08-08T01:32:28.240Z,98.29
2022-08-08T01:33:28.046Z,98.29
2022-08-08T01:34:28.954Z,98.29
2022-08-08T01:35:29.652Z,98.09
2022-08-08T01:36:27.007Z,98.79
2022-08-08T01:37:56.338Z,98.79
2022-08-08T01:38:27.477Z,98.79
2022-08-08T01:39:28.307Z,98.94
2022-08-08T01:40:27.981Z,98.74
2022-08-08T01:41:26.394Z,99.04
2022-08-08T01:42:36.134Z,98.44
2022-08-08T01:43:29.138Z,98.54
2022-08-08T01:44:27.386Z,98.94
2022-08-08T01:45:26.355Z,98.94
2022-08-08T01:46:27.029Z,98.84
2022-08-08T01:48:23.344Z,99.04
2022-08-08T01:48:30.846Z,98.94
2022-08-08T01:49:37.612Z,99.04
2022-08-08T01:50:29.899Z,99.34
2022-08-08T01:51:48.969Z,99.44
2022-08-08T01:53:01.970Z,99.34
2022-08-08T01:55:17.849Z,99.04
2022-08-08T01:55:26.070Z,99.44
2022-08-08T01:56:27.795Z,99.34
2022-08-08T01:56:31.512Z,98.94
2022-08-08T01:58:10.895Z,99.29
2022-08-08T01:58:38.263Z,99.14
2022-08-08T01:59:49.280Z,99.08
2022-08-08T02:00:27.760Z,99.24
2022-08-08T02:01:36.041Z,98.88
2022-08-08T02:02:34.949Z,98.68
2022-08-08T02:03:55.433Z,98.88
2022-08-08T02:04:28.311Z,99.39
2022-08-08T02:05:26.122Z,99.39
2022-08-08T02:06:32.469Z,98.88
2022-08-08T02:07:27.103Z,99.19
2022-08-08T02:08:34.035Z,99.08
2022-08-08T02:10:01.310Z,99.19
2022-08-08T02:10:30.098Z,99.39
2022-08-08T02:11:52.695Z,98.99
2022-08-08T02:12:27.450Z,98.99
2022-08-08T02:13:53.881Z,99.29
2022-08-08T02:14:27.028Z,99.33
2022-08-08T02:15:26.031Z,99.94
2022-08-08T02:16:28.302Z,99.33
2022-08-08T02:17:25.996Z,99.44
2022-08-08T02:18:27.033Z,99.94
2022-08-08T02:19:56.843Z,99.94
2022-08-08T02:21:01.410Z,99.99
2022-08-08T02:21:26.951Z,99.99
2022-08-08T02:22:28.405Z,99.74
2022-08-08T02:23:31.955Z,99.74
2022-08-08T02:24:26.944Z,99.64
2022-08-08T02:25:33.180Z,99.84
2022-08-08T02:26:26.901Z,99.74
2022-08-08T02:27:25.900Z,99.64
2022-08-08T02:28:35.363Z,99.24
2022-08-08T02:29:26.880Z,99.54
2022-08-08T02:30:26.848Z,99.68
2022-08-08T02:31:58.184Z,99.68
2022-08-08T02:32:26.831Z,99.84
2022-08-08T02:33:41.477Z,99.64
2022-08-08T02:34:32.714Z,99.99
2022-08-08T02:35:28.308Z,99.99
2022-08-08T02:36:25.785Z,99.99
2022-08-08T02:37:52.013Z,99.99
2022-08-08T02:38:30.030Z,99.99
2022-08-08T02:39:42.032Z,99.99
2022-08-08T02:40:28.149Z,99.99
2022-08-08T02:41:58.795Z,99.99
2022-08-08T02:42:36.256Z,99.99
2022-08-08T02:44:36.884Z,99.79
2022-08-08T02:44:37.053Z,99.99
2022-08-08T02:45:26.720Z,99.99
2022-08-08T02:46:25.669Z,99.99
2022-08-08T02:47:25.673Z,99.88
2022-08-08T02:48:27.387Z,99.99
2022-08-08T02:49:47.330Z,99.99
2022-08-08T02:50:26.632Z,99.99
2022-08-08T02:51:30.568Z,99.99
2022-08-08T02:52:35.202Z,99.99
2022-08-08T02:53:26.675Z,99.99
2022-08-08T02:54:25.946Z,99.99
2022-08-08T02:55:25.574Z,99.99
2022-08-08T02:56:26.565Z,99.99
2022-08-08T02:57:25.555Z,99.99
2022-08-08T02:58:26.514Z,99.99
2022-08-08T02:59:35.875Z,99.99
2022-08-08T03:00:31.654Z,99.99
2022-08-08T03:01:26.649Z,99.99
2022-08-08T03:02:30.260Z,99.99
2022-08-08T03:05:00.499Z,99.99
2022-08-08T03:05:05.416Z,99.99
2022-08-08T03:05:26.462Z,99.99
2022-08-08T03:06:34.403Z,99.99
2022-08-08T03:07:26.440Z,99.99
2022-08-08T03:08:26.428Z,99.99
2022-08-08T03:09:28.602Z,99.99
2022-08-08T03:10:32.546Z,99.99
2022-08-08T03:11:47.969Z,99.99
2022-08-08T03:12:35.888Z,99.99
2022-08-08T03:15:53.822Z,99.99
2022-08-08T03:16:00.415Z,99.99
2022-08-08T03:16:01.859Z,99.99
2022-08-08T03:16:35.979Z,99.99
2022-08-08T03:17:39.115Z,99.99
2022-08-08T03:18:31.186Z,99.99
2022-08-08T03:19:26.306Z,99.99
2022-08-08T03:20:25.295Z,99.99
2022-08-08T03:21:26.862Z,99.99
2022-08-08T03:22:38.639Z,99.99
2022-08-08T03:23:30.355Z,99.99
2022-08-08T03:24:26.257Z,99.99
2022-08-08T03:25:35.676Z,99.99
2022-08-08T03:26:26.273Z,99.99
2022-08-08T03:27:27.109Z,99.99
2022-08-08T03:28:25.213Z,99.99
2022-08-08T03:29:27.030Z,99.99
2022-08-08T03:30:26.243Z,99.99
2022-08-08T03:31:25.761Z,99.99
2022-08-08T03:32:28.766Z,99.99
2022-08-08T03:33:56.803Z,99.99
2022-08-08T03:34:26.435Z,99.99
2022-08-08T03:35:25.171Z,99.99
2022-08-08T03:36:27.591Z,99.99
2022-08-08T03:38:54.600Z,99.99
2022-08-08T03:38:56.191Z,99.99
2022-08-08T03:39:26.223Z,99.99
2022-08-08T03:40:30.027Z,99.99
2022-08-08T03:42:12.679Z,99.99
2022-08-08T03:42:30.071Z,99.99
2022-08-08T03:43:25.087Z,99.99
2022-08-08T03:44:26.165Z,99.99
2022-08-08T03:46:05.706Z,99.99
2022-08-08T03:46:26.014Z,99.99
2022-08-08T03:47:45.547Z,99.99
2022-08-08T03:49:09.719Z,99.99
2022-08-08T03:50:01.196Z,99.99
2022-08-08T03:50:26.149Z,99.99
2022-08-08T03:51:26.574Z,99.99
2022-08-08T03:52:26.908Z,99.99
2022-08-08T03:53:37.986Z,99.99
2022-08-08T03:54:41.663Z,99.99
2022-08-08T03:55:56.424Z,99.99
2022-08-08T03:56:32.102Z,99.99
2022-08-08T03:58:30.813Z,99.99
2022-08-08T03:58:35.546Z,99.99
2022-08-08T03:59:26.270Z,99.99
2022-08-08T04:00:25.837Z,99.99
2022-08-08T04:01:26.124Z,99.99
2022-08-08T04:02:47.703Z,99.99
2022-08-08T04:04:00.025Z,99.99
2022-08-08T04:04:31.102Z,99.99
2022-08-08T04:05:28.307Z,99.99
2022-08-08T04:06:29.928Z,99.99
2022-08-08T04:07:25.788Z,99.99
2022-08-08T04:08:33.499Z,99.99
2022-08-08T04:09:25.760Z,99.99
2022-08-08T04:10:24.749Z,99.99
2022-08-08T04:11:25.549Z,99.99
2022-08-08T04:12:24.723Z,99.99
2022-08-08T04:13:24.726Z,99.99
2022-08-08T04:14:34.641Z,99.99
2022-08-08T04:15:38.274Z,99.99
2022-08-08T04:16:38.969Z,99.99
2022-08-08T04:17:46.305Z,99.99
2022-08-08T04:18:25.662Z,99.99
2022-08-08T04:19:25.357Z,99.99
2022-08-08T04:20:28.682Z,99.99
2022-08-08T04:21:24.634Z,99.99
2022-08-08T04:22:24.649Z,99.99
2022-08-08T04:23:25.615Z,99.99
2022-08-08T04:24:29.356Z,99.99
2022-08-08T04:25:30.109Z,99.99
2022-08-08T04:26:25.999Z,99.99
2022-08-08T04:28:03.573Z,99.99
2022-08-08T04:28:36.376Z,99.99
2022-08-08T04:29:25.566Z,99.99
2022-08-08T04:30:24.536Z,99.99
2022-08-08T04:31:56.639Z,99.99
2022-08-08T04:32:30.352Z,99.99
2022-08-08T04:33:27.022Z,99.99
2022-08-08T04:34:26.825Z,99.99
2022-08-08T04:35:25.483Z,99.99
2022-08-08T04:36:24.462Z,99.99
2022-08-08T04:37:31.628Z,99.99
2022-08-08T04:38:25.445Z,99.99
2022-08-08T04:40:05.372Z,99.99
2022-08-08T04:40:25.484Z,99.99
2022-08-08T04:41:24.465Z,99.99
2022-08-08T04:42:25.409Z,99.99
2022-08-08T04:43:31.809Z,99.99
2022-08-08T04:44:26.895Z,99.99
2022-08-08T04:45:24.369Z,99.99
2022-08-08T04:46:24.965Z,99.99
2022-08-08T04:47:24.659Z,99.99
2022-08-08T04:48:24.331Z,99.99
2022-08-08T04:49:28.759Z,99.99
2022-08-08T04:50:28.250Z,99.99
2022-08-08T04:51:28.113Z,99.99
2022-08-08T04:52:25.485Z,99.99
2022-08-08T04:54:36.323Z,99.99
2022-08-08T04:54:39.283Z,99.99
2022-08-08T04:55:25.286Z,99.99
2022-08-08T04:56:25.241Z,99.99
2022-08-08T04:57:24.240Z,99.99
2022-08-08T04:58:24.226Z,99.99
2022-08-08T04:59:29.860Z,99.99
2022-08-08T05:00:25.232Z,99.99
2022-08-08T05:01:24.234Z,99.99
2022-08-08T05:02:30.766Z,99.99
2022-08-08T05:04:11.404Z,99.99
2022-08-08T05:04:25.159Z,99.99
2022-08-08T05:05:44.887Z,99.99
2022-08-08T05:06:27.973Z,99.99
2022-08-08T05:07:24.129Z,99.99
2022-08-08T05:08:26.942Z,99.99
2022-08-08T05:09:24.104Z,99.99
2022-08-08T05:10:28.304Z,99.99
2022-08-08T05:11:26.232Z,99.99
2022-08-08T05:12:29.001Z,99.99
2022-08-08T05:13:25.918Z,99.99
2022-08-08T05:14:24.049Z,99.99
2022-08-08T05:15:24.066Z,99.99
2022-08-08T05:16:51.029Z,99.99
2022-08-08T05:17:25.019Z,99.99
2022-08-08T05:18:24.007Z,99.99
2022-08-08T05:20:12.406Z,99.99
2022-08-08T05:20:24.980Z,99.99
2022-08-08T05:21:23.978Z,99.99
2022-08-08T05:22:23.989Z,99.99
2022-08-08T05:23:23.952Z,99.99
2022-08-08T05:24:26.159Z,99.99
2022-08-08T05:25:23.935Z,99.99
2022-08-08T05:26:23.946Z,99.99
2022-08-08T05:27:23.904Z,99.99
2022-08-08T05:28:56.443Z,99.99
2022-08-08T05:29:24.893Z,99.99
2022-08-08T05:30:28.237Z,99.99
2022-08-08T05:32:05.588Z,99.99
2022-08-08T05:32:27.288Z,99.99
2022-08-08T05:33:23.842Z,99.99
2022-08-08T05:34:23.832Z,99.99
2022-08-08T05:35:23.877Z,99.99
2022-08-08T05:36:25.659Z,99.99
2022-08-08T05:37:23.840Z,99.99
2022-08-08T05:38:31.362Z,99.99
2022-08-08T05:39:24.810Z,99.99
2022-08-08T05:40:28.577Z,99.99
2022-08-08T05:41:24.758Z,99.99
2022-08-08T05:42:25.766Z,99.99
2022-08-08T05:43:39.837Z,99.99
2022-08-08T05:44:26.740Z,99.99
2022-08-08T05:45:41.336Z,99.99
2022-08-08T05:46:24.699Z,99.99
2022-08-08T05:47:23.719Z,99.99
2022-08-08T05:48:28.677Z,99.99
2022-08-08T05:49:24.662Z,99.99
2022-08-08T05:50:23.667Z,99.99
2022-08-08T05:51:23.645Z,99.99
2022-08-08T05:52:33.813Z,99.99
2022-08-08T05:54:26.365Z,99.99
2022-08-08T05:54:43.073Z,99.99
2022-08-08T05:55:25.472Z,99.99
2022-08-08T05:56:23.595Z,99.99
2022-08-08T05:58:05.715Z,99.99
2022-08-08T05:58:30.110Z,99.99
2022-08-08T05:59:59.869Z,99.99
2022-08-08T06:00:25.646Z,99.99
2022-08-08T06:01:57.033Z,99.99
2022-08-08T06:02:24.569Z,99.99
2022-08-08T06:03:29.399Z,99.99
2022-08-08T06:04:24.636Z,99.99
2022-08-08T06:05:33.946Z,99.99
2022-08-08T06:06:32.311Z,99.99
2022-08-08T06:07:24.480Z,99.99
2022-08-08T06:08:33.222Z,99.99
2022-08-08T06:09:41.668Z,99.99
2022-08-08T06:10:24.849Z,99.99
2022-08-08T06:11:28.288Z,99.99
2022-08-08T06:12:29.821Z,99.99
2022-08-08T06:13:25.369Z,99.99
2022-08-08T06:14:24.396Z,99.99
2022-08-08T06:15:31.446Z,99.99
2022-08-08T06:16:27.507Z,99.99
2022-08-08T06:17:50.121Z,99.99
2022-08-08T06:18:24.583Z,99.99
2022-08-08T06:19:23.945Z,99.99
2022-08-08T06:20:25.878Z,99.99
2022-08-08T06:21:32.342Z,99.99
2022-08-08T06:22:42.269Z,99.99
2022-08-08T06:23:53.352Z,99.99
2022-08-08T06:24:30.550Z,99.99
2022-08-08T06:25:33.150Z,99.99
2022-08-08T06:26:43.544Z,99.99
2022-08-08T06:27:24.252Z,99.99
2022-08-08T06:28:29.331Z,99.99
2022-08-08T06:29:49.376Z,99.99
2022-08-08T06:30:26.258Z,99.85
2022-08-08T06:31:52.173Z,99.74
2022-08-08T06:32:24.190Z,99.65
2022-08-08T06:33:36.674Z,99.85
2022-08-08T06:34:27.616Z,99.99
2022-08-08T06:36:06.806Z,99.90
2022-08-08T06:36:24.149Z,99.99
2022-08-08T06:37:25.210Z,99.99
2022-08-08T06:38:27.618Z,99.99
2022-08-08T06:39:24.171Z,99.90
2022-08-08T06:40:27.044Z,99.99
2022-08-08T06:41:23.099Z,99.50
2022-08-08T06:42:23.100Z,99.10
2022-08-08T06:43:30.766Z,99.15
2022-08-08T06:44:25.296Z,99.55
2022-08-08T06:45:23.063Z,99.35
2022-08-08T06:46:23.872Z,99.25
2022-08-08T06:47:23.028Z,99.65
2022-08-08T06:48:26.627Z,99.75
2022-08-08T06:49:56.597Z,99.75
2022-08-08T06:50:31.271Z,99.55
2022-08-08T06:51:23.990Z,99.60
2022-08-08T06:52:23.973Z,99.00
2022-08-08T06:53:22.967Z,99.20
2022-08-08T06:54:22.971Z,99.20
2022-08-08T06:55:22.985Z,99.30
2022-08-08T06:56:23.148Z,98.95
2022-08-08T06:57:22.919Z,99.15
2022-08-08T06:58:22.924Z,99.35
2022-08-08T06:59:23.896Z,99.46
2022-08-08T07:00:30.566Z,99.26
2022-08-08T07:02:16.205Z,99.05
2022-08-08T07:02:28.801Z,98.95
2022-08-08T07:03:52.226Z,98.95
2022-08-08T07:04:38.966Z,99.01
2022-08-08T07:05:24.900Z,98.40
2022-08-08T07:06:23.834Z,98.60
2022-08-08T07:07:22.813Z,98.91
2022-08-08T07:08:22.801Z,99.11
2022-08-08T07:09:27.106Z,98.71
2022-08-08T07:10:23.906Z,98.86
2022-08-08T07:11:23.022Z,98.76
2022-08-08T07:12:22.813Z,98.66
2022-08-08T07:13:25.323Z,98.86
2022-08-08T07:14:22.741Z,98.96
2022-08-08T07:15:32.302Z,98.71
2022-08-08T07:16:28.685Z,98.81
2022-08-08T07:17:23.745Z,98.61
2022-08-08T07:18:36.161Z,99.01
2022-08-08T07:19:23.695Z,98.91
2022-08-08T07:20:22.812Z,98.31
2022-08-08T07:21:24.613Z,98.46
2022-08-08T07:22:23.646Z,98.86
2022-08-08T07:23:23.525Z,98.46
2022-08-08T07:24:22.886Z,97.56
2022-08-08T07:25:22.643Z,97.76
2022-08-08T07:26:29.010Z,97.86
2022-08-08T07:27:35.557Z,97.92
2022-08-08T07:28:23.584Z,97.92
2022-08-08T07:30:01.642Z,97.92
2022-08-08T07:30:25.646Z,97.92
2022-08-08T07:31:22.551Z,98.17
2022-08-08T07:32:22.537Z,98.17
2022-08-08T07:33:22.527Z,98.17
2022-08-08T07:34:31.822Z,97.77
2022-08-08T07:35:23.534Z,97.57
2022-08-08T07:36:22.489Z,97.67
2022-08-08T07:37:22.479Z,97.22
2022-08-08T07:38:25.497Z,97.12
2022-08-08T07:39:29.360Z,97.12
2022-08-08T07:40:29.547Z,97.22
2022-08-08T07:41:25.175Z,97.58
2022-08-08T07:42:22.425Z,97.08
2022-08-08T07:43:23.485Z,97.67
2022-08-08T07:44:37.616Z,97.17
2022-08-08T07:45:23.399Z,96.97
2022-08-08T07:46:28.992Z,96.97
2022-08-08T07:47:29.330Z,96.83
2022-08-08T07:48:23.511Z,96.73
2022-08-08T07:49:22.360Z,96.48
2022-08-08T07:50:23.519Z,96.28
2022-08-08T07:51:23.387Z,96.18
2022-08-08T07:52:26.693Z,96.28
2022-08-08T07:53:52.003Z,96.34
2022-08-08T07:54:26.616Z,95.68
2022-08-08T07:55:22.286Z,95.84
2022-08-08T07:56:36.303Z,96.04
2022-08-08T07:57:23.259Z,95.73
2022-08-08T07:58:22.258Z,95.29
2022-08-08T07:59:22.249Z,95.39
2022-08-08T08:00:22.262Z,95.49
2022-08-08T08:01:22.253Z,94.99
2022-08-08T08:02:34.768Z,94.95
2022-08-08T08:03:24.133Z,95.54
2022-08-08T08:04:23.240Z,95.34
2022-08-08T08:05:22.178Z,95.60
2022-08-08T08:06:22.194Z,95.54
2022-08-08T08:07:32.398Z,95.75
2022-08-08T08:08:23.148Z,94.80
2022-08-08T08:09:22.128Z,94.80
2022-08-08T08:10:30.409Z,94.90
2022-08-08T08:11:23.115Z,94.65
2022-08-08T08:12:35.085Z,94.95
2022-08-08T08:13:25.721Z,94.65
2022-08-08T08:14:23.083Z,94.45
2022-08-08T08:15:23.380Z,94.61
2022-08-08T08:16:23.312Z,94.21
2022-08-08T08:17:22.047Z,94.51
2022-08-08T08:18:31.804Z,94.17
2022-08-08T08:19:23.021Z,94.67
2022-08-08T08:20:22.021Z,94.56
2022-08-08T08:21:44.282Z,94.07
2022-08-08T08:22:31.252Z,94.07
2022-08-08T08:23:23.018Z,93.72
2022-08-08T08:24:21.971Z,94.02
2022-08-08T08:25:40.872Z,93.77
2022-08-08T08:26:27.508Z,93.38
2022-08-08T08:27:22.990Z,93.28
2022-08-08T08:28:24.102Z,93.18
2022-08-08T08:29:22.095Z,92.78
2022-08-08T08:30:21.910Z,93.18
2022-08-08T08:31:21.902Z,93.04
2022-08-08T08:32:31.679Z,92.83
2022-08-08T08:33:22.882Z,93.04
2022-08-08T08:34:21.858Z,93.23
2022-08-08T08:35:30.046Z,93.04
2022-08-08T08:36:26.385Z,92.49
2022-08-08T08:37:22.746Z,92.69
2022-08-08T08:38:21.817Z,92.79
2022-08-08T08:39:23.009Z,92.49
2022-08-08T08:40:21.843Z,92.55
2022-08-08T08:41:22.461Z,92.35
2022-08-08T08:42:29.383Z,92.35
2022-08-08T08:43:26.913Z,91.51
2022-08-08T08:44:22.749Z,91.75
2022-08-08T08:45:23.834Z,91.81
2022-08-08T08:46:25.908Z,91.91
2022-08-08T08:47:21.713Z,91.76
2022-08-08T08:48:21.709Z,91.46
2022-08-08T08:49:22.133Z,90.97
2022-08-08T08:50:31.880Z,91.27
2022-08-08T08:51:22.721Z,91.17
2022-08-08T08:52:21.664Z,90.92
2022-08-08T08:53:54.309Z,90.92
2022-08-08T08:54:25.323Z,91.02
2022-08-08T08:55:21.635Z,90.92
2022-08-08T08:56:24.098Z,91.08
2022-08-08T08:57:21.606Z,90.78
2022-08-08T08:58:21.598Z,90.28
2022-08-08T08:59:58.833Z,90.28
2022-08-08T09:00:22.571Z,89.98
2022-08-08T09:01:21.641Z,90.54
2022-08-08T09:02:21.815Z,90.24
2022-08-08T09:03:21.554Z,89.64
2022-08-08T09:04:31.323Z,89.84
2022-08-08T09:05:28.970Z,89.54
2022-08-08T09:06:28.266Z,89.50
2022-08-08T09:07:22.517Z,89.11
2022-08-08T09:08:21.525Z,89.20
2022-08-08T09:09:35.585Z,89.31
2022-08-08T09:10:22.466Z,89.76
2022-08-08T09:11:22.470Z,89.46
2022-08-08T09:12:21.469Z,89.12
2022-08-08T09:13:25.904Z,89.42
2022-08-08T09:14:22.457Z,88.72
2022-08-08T09:15:37.216Z,88.48
2022-08-08T09:16:22.410Z,88.14
2022-08-08T09:17:31.612Z,88.24
2022-08-08T09:18:22.386Z,87.65
2022-08-08T09:21:57.302Z,87.81
2022-08-08T09:21:57.483Z,87.51
2022-08-08T09:22:01.010Z,87.07
2022-08-08T09:22:26.750Z,87.37
2022-08-08T09:23:25.227Z,87.23
2022-08-08T09:24:21.365Z,86.63
2022-08-08T09:25:22.686Z,86.43
2022-08-08T09:26:21.598Z,86.19
2022-08-08T09:27:21.344Z,86.39
2022-08-08T09:28:35.789Z,86.10
2022-08-08T09:29:24.491Z,85.80
2022-08-08T09:30:23.077Z,85.50
2022-08-08T09:31:21.248Z,85.40
2022-08-08T09:32:21.235Z,85.56
2022-08-08T09:34:06.236Z,85.66
2022-08-08T09:34:32.187Z,85.75
2022-08-08T09:35:24.702Z,85.85
2022-08-08T09:36:22.595Z,85.96
2022-08-08T09:37:57.755Z,85.85
2022-08-08T09:38:22.178Z,85.96
2022-08-08T09:39:22.218Z,85.66
2022-08-08T09:40:21.167Z,85.52
2022-08-08T09:41:21.141Z,85.46
2022-08-08T09:42:23.106Z,85.46
2022-08-08T09:43:23.872Z,85.42
2022-08-08T09:44:29.874Z,85.42
2022-08-08T09:46:00.810Z,85.42
2022-08-08T09:46:25.862Z,85.61
2022-08-08T09:48:02.554Z,85.61
2022-08-08T09:48:32.470Z,85.22
2022-08-08T09:49:42.342Z,84.88
2022-08-08T09:50:22.641Z,85.22
2022-08-08T09:51:21.037Z,85.18
2022-08-08T09:52:56.317Z,85.08
2022-08-08T09:53:24.827Z,84.88
2022-08-08T09:54:37.786Z,85.38
2022-08-08T09:55:51.783Z,85.08
2022-08-08T09:56:25.397Z,85.38
2022-08-08T09:57:23.458Z,85.24
2022-08-08T09:58:25.965Z,84.84
2022-08-08T10:00:02.187Z,84.84
2022-08-08T10:00:50.052Z,85.04
2022-08-08T10:01:59.097Z,84.84
2022-08-08T10:02:23.299Z,84.90
2022-08-08T10:03:20.917Z,84.74
2022-08-08T10:04:35.487Z,84.61
2022-08-08T10:05:25.157Z,85.20
2022-08-08T10:06:20.879Z,84.90
2022-08-08T10:07:21.901Z,84.86
2022-08-08T10:08:20.859Z,85.06
2022-08-08T10:09:21.898Z,85.25
2022-08-08T10:10:20.840Z,84.07
2022-08-08T10:12:28.181Z,84.33
2022-08-08T10:12:28.418Z,84.03
2022-08-08T10:13:25.979Z,83.69
2022-08-08T10:14:28.242Z,83.30
2022-08-08T10:15:21.781Z,84.05
2022-08-08T10:16:20.775Z,83.71
2022-08-08T10:17:57.098Z,83.71
2022-08-08T10:18:25.901Z,84.06
2022-08-08T10:19:20.737Z,83.83
2022-08-08T10:20:22.548Z,82.70
2022-08-08T10:21:25.651Z,82.57
2022-08-08T10:22:21.714Z,82.53
2022-08-08T10:23:22.156Z,81.70
2022-08-08T10:24:29.239Z,81.37
2022-08-08T10:25:21.670Z,80.78
2022-08-08T10:26:25.869Z,80.74
2022-08-08T10:27:21.650Z,80.60
2022-08-08T10:28:20.637Z,80.17
2022-08-08T10:29:23.230Z,79.78
2022-08-08T10:30:51.647Z,79.74
2022-08-08T10:31:25.234Z,79.45
2022-08-08T10:32:21.603Z,79.11
2022-08-08T10:33:20.589Z,79.02
2022-08-08T10:34:21.686Z,79.17
2022-08-08T10:36:08.764Z,79.17
2022-08-08T10:36:22.866Z,78.39
2022-08-08T10:37:20.760Z,78.26
2022-08-08T10:38:20.538Z,78.26
2022-08-08T10:39:23.129Z,77.97
2022-08-08T10:40:20.774Z,78.42
2022-08-08T10:41:20.757Z,78.42
2022-08-08T10:42:20.582Z,77.83
2022-08-08T10:43:20.519Z,77.59
2022-08-08T10:44:20.471Z,77.40
2022-08-08T10:45:20.460Z,76.58
2022-08-08T10:46:30.338Z,77.26
2022-08-08T10:47:21.682Z,77.07
2022-08-08T10:48:20.470Z,76.91
2022-08-08T10:49:26.934Z,76.97
2022-08-08T10:50:23.502Z,77.20
2022-08-08T10:51:20.396Z,77.20
2022-08-08T10:52:20.437Z,77.20
2022-08-08T10:53:21.384Z,77.40
2022-08-08T10:54:21.373Z,77.50
2022-08-08T10:55:40.757Z,77.40
2022-08-08T10:56:27.886Z,77.40
2022-08-08T10:57:41.348Z,77.98
2022-08-08T10:58:21.333Z,77.79
2022-08-08T10:59:20.319Z,77.69
2022-08-08T11:00:20.562Z,77.83
2022-08-08T11:01:20.365Z,78.22
2022-08-08T11:02:20.420Z,78.32
2022-08-08T11:03:37.138Z,78.32
2022-08-08T11:04:38.668Z,78.12
2022-08-08T11:05:23.033Z,77.93
2022-08-08T11:06:20.243Z,77.93
2022-08-08T11:08:31.165Z,78.32
2022-08-08T11:08:31.824Z,78.22
2022-08-08T11:09:22.956Z,78.32
2022-08-08T11:10:28.501Z,78.32
2022-08-08T11:11:32.262Z,78.03
2022-08-08T11:12:21.181Z,78.45
2022-08-08T11:13:29.560Z,78.42
2022-08-08T11:14:25.640Z,77.83
2022-08-08T11:15:21.152Z,78.32
2022-08-08T11:16:31.999Z,78.03
2022-08-08T11:17:58.821Z,78.42
2022-08-08T11:18:21.119Z,78.42
2022-08-08T11:19:20.109Z,78.42
2022-08-08T11:20:24.991Z,78.42
2022-08-08T11:21:21.093Z,79.10
2022-08-08T11:22:20.076Z,79.06
2022-08-08T11:23:20.088Z,79.10
2022-08-08T11:24:20.084Z,79.30
2022-08-08T11:25:20.049Z,79.39
2022-08-08T11:26:27.473Z,79.20
2022-08-08T11:27:23.341Z,78.81
2022-08-08T11:28:20.080Z,79.00
2022-08-08T11:29:20.061Z,78.81
2022-08-08T11:30:24.989Z,78.47
2022-08-08T11:31:21.067Z,78.67
2022-08-08T11:32:19.972Z,78.86
2022-08-08T11:33:19.967Z,78.67
2022-08-08T11:34:23.566Z,79.25
2022-08-08T11:35:24.832Z,79.06
2022-08-08T11:36:20.932Z,79.16
2022-08-08T11:38:35.257Z,78.77
2022-08-08T11:38:39.096Z,78.47
2022-08-08T11:39:20.982Z,78.57
2022-08-08T11:40:21.466Z,78.47
2022-08-08T11:41:20.881Z,78.67
2022-08-08T11:42:19.877Z,78.77
2022-08-08T11:43:21.732Z,79.02
2022-08-08T11:44:28.792Z,79.02
2022-08-08T11:45:20.840Z,79.02
2022-08-08T11:46:19.829Z,78.63
2022-08-08T11:47:21.022Z,78.63
2022-08-08T11:48:20.689Z,78.63
2022-08-08T11:49:19.823Z,78.79
2022-08-08T11:50:23.565Z,78.99
2022-08-08T11:51:29.868Z,79.08
2022-08-08T11:52:27.349Z,79.08
2022-08-08T11:53:20.756Z,79.17
2022-08-08T11:54:31.428Z,79.14
2022-08-08T11:55:20.731Z,79.24
2022-08-08T11:56:19.726Z,79.20
2022-08-08T11:57:27.295Z,79.20
2022-08-08T11:58:21.714Z,79.20
2022-08-08T11:59:19.722Z,79.00
2022-08-08T12:00:20.693Z,79.10
2022-08-08T12:01:19.678Z,79.10
2022-08-08T12:02:31.782Z,79.10
2022-08-08T12:03:21.261Z,79.06
2022-08-08T12:04:21.301Z,79.06
2022-08-08T12:05:22.646Z,78.96
2022-08-08T12:06:19.637Z,78.83
2022-08-08T12:07:19.612Z,78.73
2022-08-08T12:08:19.603Z,78.83
2022-08-08T12:09:19.596Z,78.34
2022-08-08T12:10:19.620Z,78.73
2022-08-08T12:11:23.230Z,78.44
2022-08-08T12:12:28.687Z,78.73
2022-08-08T12:13:20.554Z,78.73
2022-08-08T12:14:20.541Z,78.15
2022-08-08T12:15:19.690Z,78.34
2022-08-08T12:16:19.522Z,78.05
2022-08-08T12:17:19.516Z,78.01
2022-08-08T12:18:21.257Z,77.82
2022-08-08T12:19:21.865Z,77.91
2022-08-08T12:20:20.504Z,78.01
2022-08-08T12:21:19.468Z,77.62
2022-08-08T12:22:21.203Z,76.45
2022-08-08T12:23:30.631Z,77.23
2022-08-08T12:24:20.438Z,76.45
2022-08-08T12:25:20.429Z,77.04
2022-08-08T12:26:27.924Z,77.23
2022-08-08T12:27:20.406Z,77.23
2022-08-08T12:28:19.397Z,76.55
2022-08-08T12:29:19.387Z,76.35
2022-08-08T12:30:21.889Z,76.45
2022-08-08T12:31:20.438Z,76.55
2022-08-08T12:32:31.281Z,76.59
2022-08-08T12:33:20.351Z,76.59
2022-08-08T12:34:19.441Z,76.50
2022-08-08T12:35:19.376Z,76.59
2022-08-08T12:36:19.315Z,76.40
2022-08-08T12:37:19.303Z,75.81
2022-08-08T12:38:19.299Z,76.68
2022-08-08T12:39:20.378Z,76.65
2022-08-08T12:40:24.201Z,76.68
2022-08-08T12:41:33.574Z,76.88
2022-08-08T12:42:21.231Z,77.27
2022-08-08T12:43:19.239Z,77.17
2022-08-08T12:44:30.335Z,77.08
2022-08-08T12:45:57.960Z,76.88
2022-08-08T12:46:24.876Z,77.37
2022-08-08T12:47:29.189Z,77.76
2022-08-08T12:48:36.408Z,77.66
2022-08-08T12:49:25.037Z,77.53
2022-08-08T12:50:20.189Z,77.37
2022-08-08T12:51:21.720Z,77.33